Time;durP1;ratioP1;P1;durP2;ratioP2;P2;SDS_P1;SDS_P2;PMS_P1;PMS_P2;Temp;Humidity;BMP_temperature;BMP_pressure;BME280_temperature;BME280_humidity;BME280_pressure;Samples;Min_cycle;Max_cycle;Signal;HPM_P1;HPM_P2
2023/06/19 00:03:19;;;;;;;8.50;6.20;;;;;;;18.04;63.22;98934.67;223922;214;145793;-65
2023/06/19 00:08:22;;;;;;;11.00;7.30;;;;;;;18.23;62.33;98934.67;224096;183;138454;-66
2023/06/19 00:13:25;;;;;;;11.10;7.80;;;;;;;18.32;62.26;98941.71;224064;183;137363;-67
2023/06/19 00:18:29;;;;;;;8.90;7.10;;;;;;;18.26;62.83;98944.77;223938;192;145771;-67
2023/06/19 00:23:32;;;;;;;9.70;7.30;;;;;;;18.08;63.28;98940.04;223963;195;138368;-69
2023/06/19 00:28:38;;;;;;;9.30;7.30;;;;;;;17.92;63.52;98938.27;223916;182;136716;-68
2023/06/19 00:33:43;;;;;;;10.70;7.90;;;;;;;17.83;63.87;98943.98;223700;191;146185;-69
2023/06/19 00:38:50;;;;;;;8.30;7.40;;;;;;;17.72;64.15;98938.48;223940;182;138348;-67
2023/06/19 00:43:54;;;;;;;9.60;7.60;;;;;;;17.66;64.09;98937.64;223790;215;139469;-68
2023/06/19 00:54:36;;;;;;;9.90;6.80;;;;;;;17.44;64.26;98948.31;219866;216;665314;-65
2023/06/19 00:59:39;;;;;;;13.90;7.50;;;;;;;17.35;64.42;98944.84;223693;191;136549;-66
2023/06/19 01:04:42;;;;;;;9.20;7.60;;;;;;;17.28;64.56;98942.27;223727;182;143303;-67
2023/06/19 01:09:56;;;;;;;7.80;7.00;;;;;;;17.25;64.77;98939.95;223657;216;138390;-65
2023/06/19 01:15:05;;;;;;;9.90;7.20;;;;;;;17.25;64.78;98942.84;223562;212;137922;-65
2023/06/19 01:20:11;;;;;;;9.90;7.50;;;;;;;17.15;64.82;98945.36;223727;183;144035;-66
2023/06/19 01:25:14;;;;;;;8.90;7.40;;;;;;;17.06;64.83;98948.02;223655;215;138242;-66
2023/06/19 01:30:17;;;;;;;7.80;7.00;;;;;;;16.98;64.87;98949.96;223738;199;137658;-65
2023/06/19 01:35:24;;;;;;;9.00;7.00;;;;;;;16.92;65.17;98951.95;223718;215;143282;-67
2023/06/19 01:40:31;;;;;;;9.30;7.10;;;;;;;16.84;65.44;98952.83;224031;213;138402;-67
2023/06/19 01:45:35;;;;;;;8.80;7.40;;;;;;;16.75;65.68;98951.65;223823;213;136544;-66
2023/06/19 01:50:38;;;;;;;7.60;6.40;;;;;;;16.67;65.85;98955.05;223948;214;145051;-66
2023/06/19 01:55:42;;;;;;;10.10;6.70;;;;;;;16.63;66.18;98954.67;224164;181;138430;-65
2023/06/19 02:00:45;;;;;;;9.00;6.40;;;;;;;16.65;66.28;98946.77;223884;214;137589;-67
2023/06/19 02:05:48;;;;;;;10.40;7.00;;;;;;;16.65;66.23;98951.23;224004;214;145170;-67
2023/06/19 02:10:51;;;;;;;9.00;6.80;;;;;;;16.63;66.27;98953.06;223842;215;138841;-69
2023/06/19 02:15:54;;;;;;;12.00;7.00;;;;;;;16.55;66.39;98959.15;224034;207;137179;-71
2023/06/19 02:21:01;;;;;;;12.00;7.20;;;;;;;16.51;66.50;98958.44;223845;188;147481;-68
2023/06/19 02:26:04;;;;;;;11.90;7.50;;;;;;;16.46;66.69;98959.59;224010;214;140947;-70
2023/06/19 02:31:07;;;;;;;11.00;7.40;;;;;;;16.40;66.76;98960.27;223864;215;136728;-70
2023/06/19 02:36:10;;;;;;;11.60;7.20;;;;;;;16.32;66.90;98965.08;223734;205;144999;-70
2023/06/19 02:41:15;;;;;;;10.00;6.60;;;;;;;16.28;67.15;98965.23;223961;214;138771;-69
2023/06/19 02:46:18;;;;;;;12.50;6.90;;;;;;;16.25;67.23;98965.90;223857;214;137050;-66
2023/06/19 02:51:22;;;;;;;13.40;6.90;;;;;;;16.27;67.39;98962.68;223883;214;145850;-69
2023/06/19 02:56:26;;;;;;;66.20;47.10;;;;;;;16.32;67.59;98967.02;222235;207;138751;-69
2023/06/19 03:01:30;;;;;;;8.60;7.50;;;;;;;16.39;67.16;98971.29;223010;214;136758;-69
2023/06/19 03:06:39;;;;;;;184.00;157.80;;;;;;;16.45;67.01;98971.46;223854;214;145744;-70
2023/06/19 03:11:43;;;;;;;23.90;20.10;;;;;;;16.46;67.00;98971.80;223992;207;138426;-68
2023/06/19 03:16:47;;;;;;;11.90;7.60;;;;;;;16.40;67.16;98973.20;222689;183;137018;-66
2023/06/19 03:21:51;;;;;;;85.30;59.60;;;;;;;16.42;67.40;98975.65;223844;214;145284;-66
2023/06/19 03:26:55;;;;;;;18.00;10.80;;;;;;;16.47;67.59;98972.73;223809;182;138415;-66
2023/06/19 03:31:58;;;;;;;13.90;8.00;;;;;;;16.56;67.48;98975.52;223890;207;136826;-65
2023/06/19 03:37:06;;;;;;;15.50;7.50;;;;;;;16.67;67.46;98976.36;223895;182;145030;-67
2023/06/19 03:42:09;;;;;;;18.80;7.30;;;;;;;16.82;67.15;98977.79;223731;215;138838;-66
2023/06/19 03:47:13;;;;;;;15.80;7.80;;;;;;;16.90;66.86;98979.36;223891;214;136949;-67
2023/06/19 03:52:16;;;;;;;12.00;7.50;;;;;;;16.98;66.81;98985.41;223880;214;146135;-68
2023/06/19 03:57:20;;;;;;;11.60;7.30;;;;;;;17.08;66.67;98984.55;223942;181;138561;-69
2023/06/19 04:02:23;;;;;;;125.20;98.50;;;;;;;17.15;66.63;98990.23;224021;214;136875;-68
2023/06/19 04:07:26;;;;;;;16.00;9.20;;;;;;;17.31;66.57;98992.56;223957;211;145503;-68
2023/06/19 04:12:30;;;;;;;15.80;8.10;;;;;;;17.34;66.22;98989.06;223922;214;138471;-69
2023/06/19 04:17:33;;;;;;;10.90;7.70;;;;;;;17.34;66.32;98984.42;223813;188;137337;-69
2023/06/19 04:22:38;;;;;;;11.00;7.30;;;;;;;17.32;66.15;98982.70;223957;191;145787;-68
2023/06/19 04:27:41;;;;;;;9.10;7.20;;;;;;;17.36;66.32;98984.19;223981;181;138983;-69
2023/06/19 04:32:44;;;;;;;12.20;7.20;;;;;;;17.44;66.23;98991.52;223836;214;137616;-68
2023/06/19 04:37:48;;;;;;;10.10;7.70;;;;;;;17.56;66.16;98995.65;223866;215;259107;-69
2023/06/19 04:42:53;;;;;;;13.20;8.50;;;;;;;17.69;65.61;99000.31;223948;182;138906;-72
2023/06/19 04:50:47;;;;;;;10.50;7.60;;;;;;;17.92;64.57;98999.88;219815;215;665696;-73
2023/06/19 04:55:54;;;;;;;10.20;7.80;;;;;;;18.05;64.03;99001.02;220977;186;136755;-67
2023/06/19 05:00:58;;;;;;;13.90;8.60;;;;;;;18.17;63.85;98999.89;223705;217;143954;-73
2023/06/19 05:06:01;;;;;;;10.70;8.90;;;;;;;18.30;63.65;99005.14;223578;205;138371;-67
2023/06/19 05:11:04;;;;;;;12.80;8.00;;;;;;;18.41;63.15;98996.88;223762;205;136679;-67
2023/06/19 05:16:07;;;;;;;13.70;8.70;;;;;;;18.49;63.00;98998.64;223772;208;142820;-69
2023/06/19 05:21:11;;;;;;;11.60;8.30;;;;;;;18.58;63.14;98998.81;223666;189;138347;-70
2023/06/19 05:26:14;;;;;;;11.20;7.70;;;;;;;18.70;63.26;98995.71;223696;216;136831;-67
2023/06/19 05:31:19;;;;;;;12.90;8.80;;;;;;;18.83;63.54;98998.91;223679;216;144948;-67
2023/06/19 05:36:22;;;;;;;15.20;8.90;;;;;;;18.96;63.18;99000.26;223796;193;138401;-65
2023/06/19 05:41:25;;;;;;;15.40;8.40;;;;;;;19.07;63.38;99005.42;223643;216;136950;-66
2023/06/19 05:46:28;;;;;;;11.60;8.20;;;;;;;19.21;62.98;99011.24;223682;216;145338;-67
2023/06/19 05:51:32;;;;;;;14.30;8.20;;;;;;;19.40;62.81;99014.77;223674;182;138144;-67
2023/06/19 05:56:36;;;;;;;11.90;8.40;;;;;;;19.60;62.79;99012.61;223739;216;137135;-66
2023/06/19 06:01:39;;;;;;;16.40;8.90;;;;;;;19.73;62.30;99012.58;223798;216;145303;-66
2023/06/19 06:06:42;;;;;;;11.60;9.00;;;;;;;19.83;61.69;99014.64;223666;216;138606;-66
2023/06/19 06:11:45;;;;;;;12.10;8.90;;;;;;;19.94;61.11;99019.18;223715;187;137399;-66
2023/06/19 06:16:48;;;;;;;14.30;7.90;;;;;;;20.06;60.87;99019.13;223707;208;145735;-67
2023/06/19 06:21:51;;;;;;;12.70;7.90;;;;;;;20.22;61.07;99009.31;223629;216;138854;-67
2023/06/19 06:26:54;;;;;;;17.50;8.40;;;;;;;20.35;60.92;99003.77;223673;216;136900;-67
2023/06/19 06:32:08;;;;;;;15.20;8.30;;;;;;;20.43;61.14;99011.74;223709;209;145218;-65
2023/06/19 06:37:11;;;;;;;10.20;7.50;;;;;;;20.53;61.15;99016.15;223722;216;138382;-64
2023/06/19 06:42:14;;;;;;;10.10;7.10;;;;;;;20.62;60.86;99014.70;223687;216;136403;-66
2023/06/19 06:47:19;;;;;;;17.20;9.60;;;;;;;20.71;60.72;99022.98;223657;216;145269;-68
2023/06/19 06:52:22;;;;;;;16.70;7.10;;;;;;;20.77;59.90;99028.66;223629;216;138659;-66
2023/06/19 06:57:26;;;;;;;13.20;7.60;;;;;;;20.84;59.08;99027.52;223749;182;136230;-66
2023/06/19 07:02:29;;;;;;;11.30;7.50;;;;;;;20.92;58.19;99024.86;223658;205;145209;-70
2023/06/19 07:07:33;;;;;;;13.80;7.10;;;;;;;21.00;59.01;99027.98;223635;216;138841;-69
2023/06/19 07:12:44;;;;;;;12.40;6.80;;;;;;;21.06;58.55;99029.70;223711;182;136875;-67
2023/06/19 07:17:48;;;;;;;7.90;6.20;;;;;;;21.13;58.35;99030.57;223690;216;145133;-66
2023/06/19 07:22:52;;;;;;;11.50;6.90;;;;;;;21.18;57.65;99029.74;223643;205;139136;-67
2023/06/19 07:27:56;;;;;;;9.00;6.80;;;;;;;21.22;56.45;99027.29;223679;187;136244;-67
2023/06/19 07:32:59;;;;;;;8.50;6.50;;;;;;;21.30;55.92;99022.69;223720;216;145086;-66
2023/06/19 07:38:02;;;;;;;9.60;6.70;;;;;;;21.34;55.61;99028.40;223637;216;139784;-66
2023/06/19 07:43:05;;;;;;;11.10;6.00;;;;;;;21.40;55.55;99035.58;223628;215;137246;-64
2023/06/19 07:48:09;;;;;;;8.90;5.80;;;;;;;21.53;54.16;99038.52;223717;216;144962;-70
2023/06/19 07:53:12;;;;;;;10.10;6.50;;;;;;;21.65;53.70;99033.08;223650;183;138812;-69
2023/06/19 07:58:18;;;;;;;8.70;6.20;;;;;;;21.70;54.31;99039.27;223687;216;137509;-70
2023/06/19 08:03:22;;;;;;;9.60;6.00;;;;;;;21.73;54.41;99036.43;223699;216;146415;-67
2023/06/19 08:08:26;;;;;;;9.80;6.20;;;;;;;21.75;54.12;99040.80;222632;182;138912;-74
2023/06/19 08:13:29;;;;;;;8.70;6.70;;;;;;;21.78;54.12;99037.05;221384;204;137690;-64
2023/06/19 08:18:33;;;;;;;13.30;6.20;;;;;;;21.86;53.71;99038.29;221348;184;145834;-67
2023/06/19 08:23:39;;;;;;;11.30;5.90;;;;;;;22.01;53.01;99033.83;223595;216;139890;-76
2023/06/19 08:28:42;;;;;;;;;;;;;;;22.16;52.48;99030.50;222799;209;137185;-70
2023/06/19 08:33:48;;;;;;;13.60;6.30;;;;;;;22.29;52.62;99028.13;223774;182;145350;-70
2023/06/19 08:38:54;;;;;;;14.10;8.30;;;;;;;22.44;52.65;99029.21;223717;205;139149;-72
2023/06/19 08:43:58;;;;;;;10.30;6.20;;;;;;;22.58;52.55;99027.16;223684;216;139620;-71
2023/06/19 08:49:01;;;;;;;9.50;5.90;;;;;;;22.61;52.07;99031.08;223693;184;147215;-69
2023/06/19 08:54:06;;;;;;;10.20;6.10;;;;;;;22.70;52.21;99022.66;223744;205;138176;-71
2023/06/19 08:59:18;;;;;;;13.70;5.80;;;;;;;22.80;51.14;99023.48;223826;183;137591;-73
2023/06/19 09:04:24;;;;;;;11.20;5.40;;;;;;;22.92;50.53;99021.33;223667;216;145448;-70
2023/06/19 09:09:28;;;;;;;10.60;5.70;;;;;;;23.10;50.34;99017.95;223621;183;138859;-73
2023/06/19 09:14:38;;;;;;;8.70;5.80;;;;;;;23.30;50.86;99012.93;223966;192;136782;-70
2023/06/19 09:19:52;;;;;;;19.20;6.60;;;;;;;23.44;49.88;99009.23;223934;214;145052;-74
2023/06/19 09:25:01;;;;;;;9.00;5.30;;;;;;;23.56;49.88;99010.19;223971;214;138904;-73
2023/06/19 09:30:05;;;;;;;14.00;6.60;;;;;;;23.70;49.11;99011.02;223815;187;136608;-70
2023/06/19 09:35:11;;;;;;;14.50;6.90;;;;;;;23.84;49.29;99007.24;223833;195;144944;-66
2023/06/19 09:40:14;;;;;;;10.90;5.30;;;;;;;23.87;48.73;99005.25;223051;183;138462;-65
2023/06/19 09:45:22;;;;;;;14.00;6.00;;;;;;;23.87;48.79;99005.04;223287;182;139577;-67
2023/06/19 09:50:27;;;;;;;9.30;4.80;;;;;;;23.97;48.08;99004.42;223925;185;144981;-68
2023/06/19 09:55:31;;;;;;;;;;;;;;;24.19;47.43;99003.27;223853;203;139703;-70
2023/06/19 10:00:37;;;;;;;9.10;5.40;;;;;;;24.39;45.66;98997.85;224010;214;128745;-72
2023/06/19 10:05:40;;;;;;;7.20;5.40;;;;;;;24.48;46.69;98992.41;223985;181;145394;-74
2023/06/19 10:10:50;;;;;;;13.60;5.70;;;;;;;24.58;46.73;98989.14;223903;214;138774;-75
2023/06/19 10:15:53;;;;;;;10.20;6.30;;;;;;;24.63;46.69;98979.83;223910;203;137148;-70
2023/06/19 10:20:57;;;;;;;11.00;5.80;;;;;;;24.75;47.10;98984.58;223954;185;145244;-71
2023/06/19 10:26:01;;;;;;;10.10;5.30;;;;;;;24.69;46.99;98988.30;223972;214;140129;-71
2023/06/19 10:31:08;;;;;;;7.70;5.60;;;;;;;24.90;46.94;98985.04;224028;214;137035;-69
2023/06/19 10:36:16;;;;;;;15.80;6.30;;;;;;;25.27;46.62;98978.70;222916;182;145332;-67
2023/06/19 10:41:22;;;;;;;11.10;5.50;;;;;;;25.64;46.24;98972.94;223742;187;138285;-69
2023/06/19 10:46:30;;;;;;;9.20;5.70;;;;;;;25.90;45.13;98972.84;223818;188;136513;-65
2023/06/19 10:51:38;;;;;;;57.80;45.40;;;;;;;25.77;44.77;98974.65;223763;211;145301;-67
2023/06/19 10:56:43;;;;;;;8.80;6.60;;;;;;;25.75;44.94;98973.36;223940;182;138749;-66
2023/06/19 11:01:48;;;;;;;11.60;6.00;;;;;;;26.01;44.81;98968.84;223961;214;137139;-65
2023/06/19 11:06:51;;;;;;;10.70;6.10;;;;;;;26.25;44.47;98965.04;223946;182;145727;-65
2023/06/19 11:11:54;;;;;;;7.80;6.20;;;;;;;26.49;44.28;98967.89;223874;181;138841;-65
2023/06/19 11:16:57;;;;;;;10.30;5.30;;;;;;;26.75;43.88;98963.23;223843;214;137739;-65
2023/06/19 11:22:03;;;;;;;8.60;5.80;;;;;;;27.02;43.33;98960.30;223714;207;147262;-66
2023/06/19 11:27:10;;;;;;;7.90;5.50;;;;;;;27.27;42.78;98958.21;223819;214;138712;-65
2023/06/19 11:32:17;;;;;;;7.30;5.90;;;;;;;27.52;42.14;98952.73;223952;214;136761;-65
2023/06/19 11:37:21;;;;;;;64.60;51.50;;;;;;;27.58;41.78;98951.91;223907;214;145798;-65
2023/06/19 11:42:26;;;;;;;12.20;8.30;;;;;;;27.38;41.39;98950.27;223852;189;138421;-65
2023/06/19 11:47:32;;;;;;;8.60;6.20;;;;;;;27.36;40.68;98949.20;223760;192;137473;-65
2023/06/19 11:52:36;;;;;;;6.60;5.40;;;;;;;27.47;40.93;98943.19;223902;214;145369;-65
2023/06/19 11:57:39;;;;;;;8.10;5.00;;;;;;;27.61;40.06;98943.93;223865;214;139186;-65
2023/06/19 12:02:45;;;;;;;7.00;5.40;;;;;;;27.37;38.76;98944.02;223897;207;137970;-66
2023/06/19 12:07:48;;;;;;;11.40;5.60;;;;;;;27.01;39.37;98941.48;223919;214;145918;-65
2023/06/19 12:12:52;;;;;;;245.70;201.50;;;;;;;26.71;40.11;98945.60;223884;214;138444;-66
2023/06/19 12:17:57;;;;;;;15.00;11.90;;;;;;;26.61;41.17;98948.95;223925;203;139199;-65
2023/06/19 12:23:01;;;;;;;10.00;6.20;;;;;;;26.46;41.18;98949.68;221933;183;147792;-63
2023/06/19 12:28:07;;;;;;;9.00;6.70;;;;;;;26.48;41.68;98940.41;221426;181;139381;-64
2023/06/19 12:33:11;;;;;;;13.50;7.20;;;;;;;26.60;41.83;98936.27;223800;182;137228;-66
2023/06/19 12:38:15;;;;;;;12.70;6.00;;;;;;;26.56;41.89;98930.48;223955;214;146262;-69
2023/06/19 12:43:18;;;;;;;97.90;83.10;;;;;;;26.86;42.37;98924.85;223793;214;139474;-64
2023/06/19 12:48:22;;;;;;;12.80;7.10;;;;;;;27.39;41.22;98920.65;223816;215;138245;-65
2023/06/19 12:53:28;;;;;;;10.60;6.00;;;;;;;27.40;39.48;98912.59;223849;211;145650;-64
2023/06/19 12:58:32;;;;;;;12.10;5.80;;;;;;;27.80;39.70;98910.24;223953;181;140139;-65
2023/06/19 13:03:35;;;;;;;151.30;134.70;;;;;;;28.25;39.60;98910.11;223894;214;136721;-66
2023/06/19 13:08:38;;;;;;;10.20;9.20;;;;;;;28.47;39.38;98901.46;223872;181;145665;-65
2023/06/19 13:13:42;;;;;;;10.10;5.70;;;;;;;28.78;38.99;98903.86;223855;214;139032;-65
2023/06/19 13:18:46;;;;;;;12.50;6.10;;;;;;;28.97;38.89;98905.19;223865;181;136838;-68
2023/06/19 13:23:49;;;;;;;19.40;6.10;;;;;;;29.15;38.63;98903.35;223907;213;147300;-68
2023/06/19 13:28:52;;;;;;;22.20;18.90;;;;;;;29.20;38.31;98899.88;223827;207;139239;-65
2023/06/19 13:33:56;;;;;;;157.40;140.40;;;;;;;29.08;37.94;98897.23;223233;181;140110;-66
2023/06/19 13:39:02;;;;;;;12.60;6.70;;;;;;;29.14;37.63;98894.27;222231;183;149389;-64
2023/06/19 13:44:06;;;;;;;9.50;5.80;;;;;;;29.10;37.82;98891.24;223853;214;152994;-63
2023/06/19 13:50:44;;;;;;;11.00;5.60;;;;;;;29.24;37.09;98891.29;222236;193;665528;-65
2023/06/19 16:05:32;;;;;;;8.60;5.70;;;;;;;24.52;45.12;98886.08;220687;192;665655;-65
2023/06/19 16:10:35;;;;;;;11.00;6.40;;;;;;;24.59;45.14;98885.52;223303;208;136489;-66
2023/06/19 16:15:38;;;;;;;8.70;5.80;;;;;;;24.68;45.05;98886.50;223643;182;143647;-66
2023/06/19 16:20:42;;;;;;;47.70;41.30;;;;;;;24.77;45.17;98879.53;223646;215;138323;-66
2023/06/19 16:25:45;;;;;;;11.40;9.50;;;;;;;24.89;44.57;98883.06;223663;215;136565;-65
2023/06/19 16:30:48;;;;;;;22.90;17.70;;;;;;;24.98;44.57;98885.35;223643;181;143356;-66
2023/06/19 16:35:51;;;;;;;10.90;6.20;;;;;;;25.08;44.63;98885.25;223648;182;138629;-67
2023/06/19 16:40:54;;;;;;;11.70;7.60;;;;;;;25.15;44.41;98888.10;223662;182;137047;-66
2023/06/19 16:45:58;;;;;;;7.60;6.20;;;;;;;25.23;44.19;98887.82;221587;181;143645;-66
2023/06/19 16:51:01;;;;;;;12.70;9.40;;;;;;;25.32;44.08;98887.65;223704;216;140791;-66
2023/06/19 16:56:06;;;;;;;;;;;;;;;25.38;44.02;98888.14;223680;215;138336;-66
2023/06/19 17:01:09;;;;;;;15.40;9.90;;;;;;;25.41;43.84;98885.74;223712;205;146907;-66
2023/06/19 17:06:15;;;;;;;17.70;12.90;;;;;;;25.43;43.58;98884.17;223497;186;138348;-67
2023/06/19 17:11:18;;;;;;;15.40;11.90;;;;;;;25.47;43.79;98880.39;223566;215;137091;-65
2023/06/19 17:16:23;;;;;;;23.40;18.30;;;;;;;25.48;43.24;98875.79;221881;183;145387;-66
2023/06/19 17:21:26;;;;;;;14.70;10.30;;;;;;;25.47;43.44;98874.94;223619;182;138469;-64
2023/06/19 17:26:30;;;;;;;13.80;11.30;;;;;;;25.45;43.35;98879.48;221746;182;137556;-65
2023/06/19 17:31:33;;;;;;;10.50;8.30;;;;;;;25.42;43.22;98883.02;223492;182;146577;-68
2023/06/19 17:36:38;;;;;;;234.20;199.30;;;;;;;25.42;43.27;98881.80;223497;183;138643;-63
2023/06/19 17:41:42;;;;;;;34.20;28.80;;;;;;;25.40;43.55;98884.63;223544;183;138108;-66
2023/06/19 17:46:45;;;;;;;22.70;17.90;;;;;;;25.38;44.05;98886.54;223502;190;147680;-65
2023/06/19 17:51:48;;;;;;;18.30;12.70;;;;;;;25.35;44.10;98883.79;223455;182;138304;-64
2023/06/19 17:56:51;;;;;;;15.80;10.70;;;;;;;25.33;44.17;98885.73;223485;216;136939;-65
2023/06/19 18:01:55;;;;;;;87.70;69.10;;;;;;;25.28;44.34;98884.13;223498;194;145536;-65
2023/06/19 18:06:58;;;;;;;46.90;34.60;;;;;;;25.21;44.31;98889.55;223516;216;138846;-64
2023/06/19 18:12:04;;;;;;;33.90;24.50;;;;;;;25.12;44.58;98889.18;223518;215;140018;-68
2023/06/19 18:17:08;;;;;;;168.60;142.40;;;;;;;25.05;44.85;98899.22;223499;216;145416;-66
2023/06/19 18:22:11;;;;;;;49.70;41.90;;;;;;;24.99;45.05;98906.48;223481;183;138531;-68
2023/06/19 18:27:14;;;;;;;18.00;13.20;;;;;;;24.88;45.21;98907.30;223522;216;136728;-66
2023/06/19 18:32:18;;;;;;;39.60;35.10;;;;;;;24.76;45.77;98912.59;223535;216;145636;-67
2023/06/19 18:37:21;;;;;;;123.50;96.90;;;;;;;24.67;45.95;98915.04;223451;216;138527;-66
2023/06/19 19:44:46;;;;;;;17.40;9.30;;;;;;;22.15;55.99;98962.93;221834;193;666533;-66
2023/06/19 19:49:51;;;;;;;16.60;9.60;;;;;;;21.96;55.85;98966.41;223025;187;139112;-65
2023/06/19 19:54:54;;;;;;;14.30;9.90;;;;;;;21.88;56.55;98968.91;223368;186;143287;-64
2023/06/19 19:59:57;;;;;;;18.80;9.50;;;;;;;21.87;56.98;98970.65;223307;186;138828;-65
2023/06/19 20:05:01;;;;;;;16.20;10.10;;;;;;;21.92;57.51;98978.61;223613;183;137343;-65
2023/06/19 20:10:05;;;;;;;18.50;10.60;;;;;;;21.95;57.88;98981.33;223708;183;145564;-63
2023/06/19 20:15:11;;;;;;;16.00;10.50;;;;;;;21.97;58.45;98979.86;223712;183;139322;-65
2023/06/19 20:20:14;;;;;;;15.50;10.10;;;;;;;21.98;58.61;98980.64;223723;183;136333;-65
2023/06/19 20:25:19;;;;;;;13.90;10.10;;;;;;;22.01;58.55;98981.28;223621;183;143398;-64
2023/06/19 20:30:25;;;;;;;15.00;10.50;;;;;;;21.97;58.77;98980.95;223570;183;138403;-65
2023/06/19 20:35:29;;;;;;;16.90;10.10;;;;;;;21.96;58.87;98987.02;223658;183;137209;-65
2023/06/19 20:40:32;;;;;;;17.00;9.60;;;;;;;21.93;58.86;98990.87;223658;183;145297;-64
2023/06/19 20:50:45;;;;;;;12.60;9.90;;;;;;;21.91;59.01;98997.52;220012;192;666778;-66
2023/06/19 20:55:48;;;;;;;14.60;9.90;;;;;;;21.84;59.26;99001.09;223924;181;135734;-65
2023/06/19 21:00:53;;;;;;;15.80;10.20;;;;;;;21.80;59.35;98998.20;223972;180;145564;-66
2023/06/19 21:05:57;;;;;;;15.00;10.20;;;;;;;21.73;59.86;99001.59;223911;180;138428;-66
2023/06/19 21:11:10;;;;;;;13.90;9.90;;;;;;;21.66;60.06;98998.97;223872;181;136801;-65
2023/06/19 21:16:14;;;;;;;17.70;10.00;;;;;;;21.58;60.42;98997.30;223849;181;143560;-65
2023/06/19 21:21:17;;;;;;;16.30;9.90;;;;;;;21.52;60.69;99000.16;223892;181;138317;-65
2023/06/19 21:26:20;;;;;;;17.50;10.50;;;;;;;21.43;60.84;99002.83;223900;181;137021;-66
2023/06/19 21:31:23;;;;;;;13.20;9.40;;;;;;;21.37;61.26;99002.61;222884;180;146747;-66
2023/06/19 21:36:27;;;;;;;13.10;9.60;;;;;;;21.34;61.56;99003.53;223906;180;140824;-64
2023/06/19 21:41:31;;;;;;;16.50;10.00;;;;;;;21.33;61.79;99003.92;222379;181;138939;-64
2023/06/19 21:46:35;;;;;;;22.60;9.90;;;;;;;21.32;62.05;99006.75;223899;180;145694;-65
2023/06/19 21:51:41;;;;;;;14.20;9.70;;;;;;;21.29;61.94;99012.16;223811;180;138479;-64
2023/06/19 21:56:44;;;;;;;15.10;9.60;;;;;;;21.23;61.91;99019.48;223692;180;137872;-64
2023/06/19 22:01:48;;;;;;;16.50;9.50;;;;;;;21.14;62.14;99026.38;223716;181;145968;-64
2023/06/19 22:06:53;;;;;;;13.10;9.00;;;;;;;21.05;62.10;99018.90;223674;181;138715;-65
2023/06/19 22:11:57;;;;;;;12.30;9.40;;;;;;;20.94;62.25;99016.89;223837;181;136734;-64
2023/06/19 22:17:03;;;;;;;13.50;9.60;;;;;;;20.85;62.40;99016.30;223826;181;145285;-64
2023/06/19 22:22:07;;;;;;;13.60;9.50;;;;;;;20.73;62.61;99009.98;223707;181;138139;-66
2023/06/19 22:27:10;;;;;;;14.10;8.90;;;;;;;20.64;63.02;99010.30;223741;181;136996;-65
2023/06/19 22:32:13;;;;;;;16.40;9.50;;;;;;;20.56;63.09;99004.14;223736;181;145549;-64
2023/06/19 22:37:16;;;;;;;12.70;9.30;;;;;;;20.48;63.19;99006.36;223730;181;138468;-65
2023/06/19 22:42:21;;;;;;;15.50;9.40;;;;;;;20.43;63.41;99015.55;223874;180;259592;-65
2023/06/19 22:47:24;;;;;;;12.60;9.40;;;;;;;20.43;63.47;99019.00;223720;181;145772;-65
2023/06/19 22:52:27;;;;;;;14.10;9.60;;;;;;;20.35;63.39;99016.54;223769;180;139443;-65
2023/06/19 22:57:34;;;;;;;15.40;9.50;;;;;;;20.31;63.62;99018.80;223958;181;136350;-64
2023/06/19 23:02:41;;;;;;;18.40;9.50;;;;;;;20.23;63.72;99017.66;223813;181;145289;-65
2023/06/19 23:07:46;;;;;;;11.80;9.10;;;;;;;20.14;63.65;99021.95;223698;181;139171;-64
2023/06/19 23:12:49;;;;;;;11.50;9.50;;;;;;;20.06;63.88;99025.26;223737;181;136684;-65
2023/06/19 23:17:53;;;;;;;11.60;9.10;;;;;;;19.96;64.00;99025.25;223794;181;145303;-66
2023/06/19 23:22:56;;;;;;;15.00;9.50;;;;;;;19.89;64.30;99018.94;223763;181;138446;-64
2023/06/19 23:27:59;;;;;;;14.30;9.60;;;;;;;19.83;64.40;99013.05;223717;181;136746;-64
2023/06/19 23:33:04;;;;;;;15.10;9.60;;;;;;;19.77;64.55;99018.13;223796;181;146546;-64
2023/06/19 23:38:07;;;;;;;13.60;9.30;;;;;;;19.73;64.69;99019.83;223671;181;139376;-66
2023/06/19 23:43:11;;;;;;;14.20;9.00;;;;;;;19.71;64.84;99021.98;223750;181;137938;-64
2023/06/19 23:48:15;;;;;;;11.20;9.20;;;;;;;19.70;65.03;99017.74;223794;181;145628;-65
2023/06/19 23:53:19;;;;;;;17.40;10.00;;;;;;;19.67;65.09;99019.33;223831;181;138579;-64
2023/06/19 23:58:22;;;;;;;16.00;10.10;;;;;;;19.65;64.99;99018.33;223622;181;137600;-64
